RJNO(METAR)
08/13 15:00
RJNO 130600Z 26011KT 9999 FEW010 BKN012 BKN030 29/26 Q1010 RMK
A2985=
戻る
トップページへ戻る
IMOC Co,.Ltd.